sensor_id;sensor_type;location;lat;lon;timestamp;temperature;humidity
9193;DHT22;4631;49.296;10.560;2023-07-29T00:02:18;17.80;99.90
9193;DHT22;4631;49.296;10.560;2023-07-29T00:04:45;17.80;99.90
9193;DHT22;4631;49.296;10.560;2023-07-29T00:07:11;17.80;99.90
9193;DHT22;4631;49.296;10.560;2023-07-29T00:09:38;17.80;99.90
9193;DHT22;4631;49.296;10.560;2023-07-29T00:12:05;17.70;99.90
9193;DHT22;4631;49.296;10.560;2023-07-29T00:14:33;17.80;99.90
9193;DHT22;4631;49.296;10.560;2023-07-29T00:17:00;17.80;99.90
9193;DHT22;4631;49.296;10.560;2023-07-29T00:19:26;17.70;99.90
9193;DHT22;4631;49.296;10.560;2023-07-29T00:21:53;17.80;99.90
9193;DHT22;4631;49.296;10.560;2023-07-29T00:24:20;17.80;99.90
9193;DHT22;4631;49.296;10.560;2023-07-29T00:26:47;17.70;99.90
9193;DHT22;4631;49.296;10.560;2023-07-29T00:29:14;17.80;99.90
9193;DHT22;4631;49.296;10.560;2023-07-29T00:31:42;17.70;99.90
9193;DHT22;4631;49.296;10.560;2023-07-29T00:34:08;17.70;99.90
9193;DHT22;4631;49.296;10.560;2023-07-29T00:36:35;17.70;99.90
9193;DHT22;4631;49.296;10.560;2023-07-29T00:39:02;17.70;99.90
9193;DHT22;4631;49.296;10.560;2023-07-29T00:41:28;17.70;99.90
9193;DHT22;4631;49.296;10.560;2023-07-29T00:43:55;17.60;99.90
9193;DHT22;4631;49.296;10.560;2023-07-29T00:46:22;17.60;99.90
9193;DHT22;4631;49.296;10.560;2023-07-29T00:48:50;17.60;99.90
9193;DHT22;4631;49.296;10.560;2023-07-29T00:51:17;17.60;99.90
9193;DHT22;4631;49.296;10.560;2023-07-29T00:53:44;17.60;99.90
9193;DHT22;4631;49.296;10.560;2023-07-29T00:56:10;17.50;99.90
9193;DHT22;4631;49.296;10.560;2023-07-29T00:58:37;17.50;99.90
9193;DHT22;4631;49.296;10.560;2023-07-29T01:01:04;17.50;99.90
9193;DHT22;4631;49.296;10.560;2023-07-29T01:03:31;17.50;99.90
9193;DHT22;4631;49.296;10.560;2023-07-29T01:06:01;17.40;99.90
9193;DHT22;4631;49.296;10.560;2023-07-29T01:08:34;17.40;99.90
9193;DHT22;4631;49.296;10.560;2023-07-29T01:11:06;17.40;99.90
9193;DHT22;4631;49.296;10.560;2023-07-29T01:13:41;17.30;99.90
9193;DHT22;4631;49.296;10.560;2023-07-29T01:16:11;17.30;99.90
9193;DHT22;4631;49.296;10.560;2023-07-29T01:18:41;17.30;99.90
9193;DHT22;4631;49.296;10.560;2023-07-29T01:21:10;17.30;99.90
9193;DHT22;4631;49.296;10.560;2023-07-29T01:23:38;17.30;99.90
9193;DHT22;4631;49.296;10.560;2023-07-29T01:26:05;17.30;99.90
9193;DHT22;4631;49.296;10.560;2023-07-29T01:28:32;17.30;99.90
9193;DHT22;4631;49.296;10.560;2023-07-29T01:31:01;17.30;99.90
9193;DHT22;4631;49.296;10.560;2023-07-29T01:33:30;17.30;99.90
9193;DHT22;4631;49.296;10.560;2023-07-29T01:36:03;17.30;99.90
9193;DHT22;4631;49.296;10.560;2023-07-29T01:38:32;17.30;99.90
9193;DHT22;4631;49.296;10.560;2023-07-29T01:41:01;17.30;99.90
9193;DHT22;4631;49.296;10.560;2023-07-29T01:43:28;17.30;99.90
9193;DHT22;4631;49.296;10.560;2023-07-29T01:45:55;17.30;99.90
9193;DHT22;4631;49.296;10.560;2023-07-29T01:48:22;17.30;99.90
9193;DHT22;4631;49.296;10.560;2023-07-29T01:50:48;17.30;99.90
9193;DHT22;4631;49.296;10.560;2023-07-29T01:53:15;17.20;99.90
9193;DHT22;4631;49.296;10.560;2023-07-29T01:55:42;17.20;99.90
9193;DHT22;4631;49.296;10.560;2023-07-29T01:58:11;17.20;99.90
9193;DHT22;4631;49.296;10.560;2023-07-29T02:00:38;17.20;99.90
9193;DHT22;4631;49.296;10.560;2023-07-29T02:03:05;17.20;99.90
9193;DHT22;4631;49.296;10.560;2023-07-29T02:05:32;17.20;99.90
9193;DHT22;4631;49.296;10.560;2023-07-29T02:07:58;17.20;99.90
9193;DHT22;4631;49.296;10.560;2023-07-29T02:10:25;17.20;99.90
9193;DHT22;4631;49.296;10.560;2023-07-29T02:12:52;17.20;99.90
9193;DHT22;4631;49.296;10.560;2023-07-29T02:15:20;17.10;99.90
9193;DHT22;4631;49.296;10.560;2023-07-29T02:17:47;17.20;99.90
9193;DHT22;4631;49.296;10.560;2023-07-29T02:20:13;17.20;99.90
9193;DHT22;4631;49.296;10.560;2023-07-29T02:22:40;17.20;99.90
9193;DHT22;4631;49.296;10.560;2023-07-29T02:25:07;17.20;99.90
9193;DHT22;4631;49.296;10.560;2023-07-29T02:27:35;17.20;99.90
9193;DHT22;4631;49.296;10.560;2023-07-29T02:30:02;17.20;99.90
9193;DHT22;4631;49.296;10.560;2023-07-29T02:32:30;17.20;99.90
9193;DHT22;4631;49.296;10.560;2023-07-29T02:34:57;17.20;99.90
9193;DHT22;4631;49.296;10.560;2023-07-29T02:37:23;17.20;99.90
9193;DHT22;4631;49.296;10.560;2023-07-29T02:39:50;17.20;99.90
9193;DHT22;4631;49.296;10.560;2023-07-29T02:42:17;17.20;99.90
9193;DHT22;4631;49.296;10.560;2023-07-29T02:44:44;17.20;99.90
9193;DHT22;4631;49.296;10.560;2023-07-29T02:47:10;17.20;99.90
9193;DHT22;4631;49.296;10.560;2023-07-29T02:49:39;17.20;99.90
9193;DHT22;4631;49.296;10.560;2023-07-29T02:52:05;17.10;99.90
9193;DHT22;4631;49.296;10.560;2023-07-29T02:54:32;17.10;99.90
9193;DHT22;4631;49.296;10.560;2023-07-29T02:56:59;17.10;99.90
9193;DHT22;4631;49.296;10.560;2023-07-29T02:59:26;17.10;99.90
9193;DHT22;4631;49.296;10.560;2023-07-29T03:01:52;17.10;99.90
9193;DHT22;4631;49.296;10.560;2023-07-29T03:04:19;17.00;99.90
9193;DHT22;4631;49.296;10.560;2023-07-29T03:06:48;17.00;99.90
9193;DHT22;4631;49.296;10.560;2023-07-29T03:09:14;17.00;99.90
9193;DHT22;4631;49.296;10.560;2023-07-29T03:11:41;17.00;99.90
9193;DHT22;4631;49.296;10.560;2023-07-29T03:14:08;17.00;99.90
9193;DHT22;4631;49.296;10.560;2023-07-29T03:16:34;17.00;99.90
9193;DHT22;4631;49.296;10.560;2023-07-29T03:19:01;17.00;99.90
9193;DHT22;4631;49.296;10.560;2023-07-29T03:21:28;17.00;99.90
9193;DHT22;4631;49.296;10.560;2023-07-29T03:23:56;17.10;99.90
9193;DHT22;4631;49.296;10.560;2023-07-29T03:26:23;17.00;99.90
9193;DHT22;4631;49.296;10.560;2023-07-29T03:28:50;17.00;99.90
9193;DHT22;4631;49.296;10.560;2023-07-29T03:31:17;17.10;99.90
9193;DHT22;4631;49.296;10.560;2023-07-29T03:33:44;17.10;99.90
9193;DHT22;4631;49.296;10.560;2023-07-29T03:36:10;17.10;99.90
9193;DHT22;4631;49.296;10.560;2023-07-29T03:38:37;17.10;99.90
9193;DHT22;4631;49.296;10.560;2023-07-29T03:41:07;17.10;99.90
9193;DHT22;4631;49.296;10.560;2023-07-29T03:43:33;17.10;99.90
9193;DHT22;4631;49.296;10.560;2023-07-29T03:46:00;17.10;99.90
9193;DHT22;4631;49.296;10.560;2023-07-29T03:48:27;17.10;99.90
9193;DHT22;4631;49.296;10.560;2023-07-29T03:50:54;17.10;99.90
9193;DHT22;4631;49.296;10.560;2023-07-29T03:53:20;17.10;99.90
9193;DHT22;4631;49.296;10.560;2023-07-29T03:55:47;17.10;99.90
9193;DHT22;4631;49.296;10.560;2023-07-29T03:58:16;17.10;99.90
9193;DHT22;4631;49.296;10.560;2023-07-29T04:00:43;17.10;99.90
9193;DHT22;4631;49.296;10.560;2023-07-29T04:03:10;17.10;99.90
9193;DHT22;4631;49.296;10.560;2023-07-29T04:05:36;17.20;99.90
9193;DHT22;4631;49.296;10.560;2023-07-29T04:08:03;17.10;99.90
9193;DHT22;4631;49.296;10.560;2023-07-29T04:10:30;17.20;99.90
9193;DHT22;4631;49.296;10.560;2023-07-29T04:12:57;17.20;99.90
9193;DHT22;4631;49.296;10.560;2023-07-29T04:15:25;17.10;99.90
9193;DHT22;4631;49.296;10.560;2023-07-29T04:17:52;17.10;99.90
9193;DHT22;4631;49.296;10.560;2023-07-29T04:20:18;17.20;99.90
9193;DHT22;4631;49.296;10.560;2023-07-29T04:22:45;17.20;99.90
9193;DHT22;4631;49.296;10.560;2023-07-29T04:25:12;17.20;99.90
9193;DHT22;4631;49.296;10.560;2023-07-29T04:27:39;17.20;99.90
9193;DHT22;4631;49.296;10.560;2023-07-29T04:30:06;17.20;99.90
9193;DHT22;4631;49.296;10.560;2023-07-29T04:32:34;17.20;99.90
9193;DHT22;4631;49.296;10.560;2023-07-29T04:35:01;17.20;99.90
9193;DHT22;4631;49.296;10.560;2023-07-29T04:37:28;17.30;99.90
9193;DHT22;4631;49.296;10.560;2023-07-29T04:39:54;17.30;99.90
9193;DHT22;4631;49.296;10.560;2023-07-29T04:42:21;17.30;99.90
9193;DHT22;4631;49.296;10.560;2023-07-29T04:44:48;17.40;99.90
9193;DHT22;4631;49.296;10.560;2023-07-29T04:47:14;17.40;99.90
9193;DHT22;4631;49.296;10.560;2023-07-29T04:49:42;17.50;99.90
9193;DHT22;4631;49.296;10.560;2023-07-29T04:52:09;17.50;99.90
9193;DHT22;4631;49.296;10.560;2023-07-29T04:54:35;17.50;99.90
9193;DHT22;4631;49.296;10.560;2023-07-29T04:57:02;17.50;99.90
9193;DHT22;4631;49.296;10.560;2023-07-29T04:59:29;17.60;99.90
9193;DHT22;4631;49.296;10.560;2023-07-29T05:01:56;17.60;99.90
9193;DHT22;4631;49.296;10.560;2023-07-29T05:04:22;17.60;99.90
9193;DHT22;4631;49.296;10.560;2023-07-29T05:06:51;17.60;99.90
9193;DHT22;4631;49.296;10.560;2023-07-29T05:09:18;17.60;99.90
9193;DHT22;4631;49.296;10.560;2023-07-29T05:11:45;17.60;99.90
9193;DHT22;4631;49.296;10.560;2023-07-29T05:14:13;17.60;99.90
9193;DHT22;4631;49.296;10.560;2023-07-29T05:16:40;17.60;99.90
9193;DHT22;4631;49.296;10.560;2023-07-29T05:19:07;17.60;99.90
9193;DHT22;4631;49.296;10.560;2023-07-29T05:21:33;17.60;99.90
9193;DHT22;4631;49.296;10.560;2023-07-29T05:24:02;17.60;99.90
9193;DHT22;4631;49.296;10.560;2023-07-29T05:26:28;17.60;99.90
9193;DHT22;4631;49.296;10.560;2023-07-29T05:28:55;17.60;99.90
9193;DHT22;4631;49.296;10.560;2023-07-29T05:31:22;17.60;99.90
9193;DHT22;4631;49.296;10.560;2023-07-29T05:33:48;17.60;99.90
9193;DHT22;4631;49.296;10.560;2023-07-29T05:36:15;17.60;99.90
9193;DHT22;4631;49.296;10.560;2023-07-29T05:38:42;17.60;99.90
9193;DHT22;4631;49.296;10.560;2023-07-29T05:41:12;17.70;99.90
9193;DHT22;4631;49.296;10.560;2023-07-29T05:43:38;17.70;99.90
9193;DHT22;4631;49.296;10.560;2023-07-29T05:46:05;17.70;99.90
9193;DHT22;4631;49.296;10.560;2023-07-29T05:48:32;17.70;99.90
9193;DHT22;4631;49.296;10.560;2023-07-29T05:50:59;17.70;99.90
9193;DHT22;4631;49.296;10.560;2023-07-29T05:53:26;17.70;99.90
9193;DHT22;4631;49.296;10.560;2023-07-29T05:58:57;17.70;99.90
9193;DHT22;4631;49.296;10.560;2023-07-29T06:01:24;17.70;99.90
9193;DHT22;4631;49.296;10.560;2023-07-29T06:03:50;17.70;99.90
9193;DHT22;4631;49.296;10.560;2023-07-29T06:06:17;17.70;99.90
9193;DHT22;4631;49.296;10.560;2023-07-29T06:08:44;17.60;99.90
9193;DHT22;4631;49.296;10.560;2023-07-29T06:11:10;17.70;99.90
9193;DHT22;4631;49.296;10.560;2023-07-29T06:13:37;17.60;99.90
9193;DHT22;4631;49.296;10.560;2023-07-29T06:16:05;17.60;99.90
9193;DHT22;4631;49.296;10.560;2023-07-29T06:18:32;17.60;99.90
9193;DHT22;4631;49.296;10.560;2023-07-29T06:20:59;17.60;99.90
9193;DHT22;4631;49.296;10.560;2023-07-29T06:23:25;17.50;99.90
9193;DHT22;4631;49.296;10.560;2023-07-29T06:25:52;17.50;99.90
9193;DHT22;4631;49.296;10.560;2023-07-29T06:28:19;17.50;99.90
9193;DHT22;4631;49.296;10.560;2023-07-29T06:30:46;17.50;99.90
9193;DHT22;4631;49.296;10.560;2023-07-29T06:33:14;17.40;99.90
9193;DHT22;4631;49.296;10.560;2023-07-29T06:35:41;17.40;99.90
9193;DHT22;4631;49.296;10.560;2023-07-29T06:38:08;17.40;99.90
9193;DHT22;4631;49.296;10.560;2023-07-29T06:40:34;17.40;99.90
9193;DHT22;4631;49.296;10.560;2023-07-29T06:45:39;17.50;99.90
9193;DHT22;4631;49.296;10.560;2023-07-29T06:48:05;17.50;99.90
9193;DHT22;4631;49.296;10.560;2023-07-29T06:50:33;17.50;99.90
9193;DHT22;4631;49.296;10.560;2023-07-29T06:53:00;17.50;99.90
9193;DHT22;4631;49.296;10.560;2023-07-29T06:55:27;17.60;99.90
9193;DHT22;4631;49.296;10.560;2023-07-29T06:57:53;17.60;99.90
9193;DHT22;4631;49.296;10.560;2023-07-29T07:00:20;17.60;99.90
9193;DHT22;4631;49.296;10.560;2023-07-29T07:02:47;17.70;99.90
9193;DHT22;4631;49.296;10.560;2023-07-29T07:05:13;17.70;99.90
9193;DHT22;4631;49.296;10.560;2023-07-29T07:07:42;17.80;99.90
9193;DHT22;4631;49.296;10.560;2023-07-29T07:10:08;17.80;99.90
9193;DHT22;4631;49.296;10.560;2023-07-29T07:12:35;17.90;99.90
9193;DHT22;4631;49.296;10.560;2023-07-29T07:15:02;17.90;99.90
9193;DHT22;4631;49.296;10.560;2023-07-29T07:17:30;18.00;99.90
9193;DHT22;4631;49.296;10.560;2023-07-29T07:19:57;18.00;99.90
9193;DHT22;4631;49.296;10.560;2023-07-29T07:22:23;18.10;99.90
9193;DHT22;4631;49.296;10.560;2023-07-29T07:24:52;18.20;99.90
9193;DHT22;4631;49.296;10.560;2023-07-29T07:27:18;18.30;99.90
9193;DHT22;4631;49.296;10.560;2023-07-29T07:29:45;18.30;99.90
9193;DHT22;4631;49.296;10.560;2023-07-29T07:32:12;18.30;99.90
9193;DHT22;4631;49.296;10.560;2023-07-29T07:34:38;18.40;99.90
9193;DHT22;4631;49.296;10.560;2023-07-29T07:37:05;18.40;99.90
9193;DHT22;4631;49.296;10.560;2023-07-29T07:39:32;18.40;99.90
9193;DHT22;4631;49.296;10.560;2023-07-29T07:42:00;18.40;99.90
9193;DHT22;4631;49.296;10.560;2023-07-29T07:44:27;18.40;99.90
9193;DHT22;4631;49.296;10.560;2023-07-29T07:46:53;18.40;99.90
9193;DHT22;4631;49.296;10.560;2023-07-29T07:49:20;18.40;99.90
9193;DHT22;4631;49.296;10.560;2023-07-29T07:51:47;18.40;99.90
9193;DHT22;4631;49.296;10.560;2023-07-29T07:54:13;18.40;99.90
9193;DHT22;4631;49.296;10.560;2023-07-29T07:56:40;18.40;99.90
9193;DHT22;4631;49.296;10.560;2023-07-29T07:59:08;18.50;99.90
9193;DHT22;4631;49.296;10.560;2023-07-29T08:01:35;18.50;99.90
9193;DHT22;4631;49.296;10.560;2023-07-29T08:04:02;18.50;99.90
9193;DHT22;4631;49.296;10.560;2023-07-29T08:06:29;18.50;99.90
9193;DHT22;4631;49.296;10.560;2023-07-29T08:08:56;18.50;99.90
9193;DHT22;4631;49.296;10.560;2023-07-29T08:11:23;18.50;99.90
9193;DHT22;4631;49.296;10.560;2023-07-29T08:13:50;18.50;99.90
9193;DHT22;4631;49.296;10.560;2023-07-29T08:16:18;18.50;99.90
9193;DHT22;4631;49.296;10.560;2023-07-29T08:18:44;18.50;99.90
9193;DHT22;4631;49.296;10.560;2023-07-29T08:21:12;18.50;99.90
9193;DHT22;4631;49.296;10.560;2023-07-29T08:23:39;18.50;99.90
9193;DHT22;4631;49.296;10.560;2023-07-29T08:26:06;18.50;99.90
9193;DHT22;4631;49.296;10.560;2023-07-29T08:28:33;18.60;99.90
9193;DHT22;4631;49.296;10.560;2023-07-29T08:31:15;18.60;99.90
9193;DHT22;4631;49.296;10.560;2023-07-29T08:33:43;18.50;99.90
9193;DHT22;4631;49.296;10.560;2023-07-29T08:36:09;18.50;99.90
9193;DHT22;4631;49.296;10.560;2023-07-29T08:38:36;18.50;99.90
9193;DHT22;4631;49.296;10.560;2023-07-29T08:41:06;18.50;99.90
9193;DHT22;4631;49.296;10.560;2023-07-29T08:43:38;18.50;99.90
9193;DHT22;4631;49.296;10.560;2023-07-29T08:46:05;18.50;99.90
9193;DHT22;4631;49.296;10.560;2023-07-29T08:48:32;18.60;99.90
9193;DHT22;4631;49.296;10.560;2023-07-29T08:51:04;18.60;99.90
9193;DHT22;4631;49.296;10.560;2023-07-29T08:53:31;18.60;99.90
9193;DHT22;4631;49.296;10.560;2023-07-29T08:55:58;18.70;99.90
9193;DHT22;4631;49.296;10.560;2023-07-29T08:58:26;18.60;99.90
9193;DHT22;4631;49.296;10.560;2023-07-29T09:00:53;18.70;99.90
9193;DHT22;4631;49.296;10.560;2023-07-29T09:03:20;18.70;99.90
9193;DHT22;4631;49.296;10.560;2023-07-29T09:05:47;18.70;99.90
9193;DHT22;4631;49.296;10.560;2023-07-29T09:08:15;18.60;99.90
9193;DHT22;4631;49.296;10.560;2023-07-29T09:10:42;18.60;99.90
9193;DHT22;4631;49.296;10.560;2023-07-29T09:16:05;18.70;99.90
9193;DHT22;4631;49.296;10.560;2023-07-29T09:18:32;18.80;99.90
9193;DHT22;4631;49.296;10.560;2023-07-29T09:20:59;18.70;99.90
9193;DHT22;4631;49.296;10.560;2023-07-29T09:23:27;18.90;99.90
9193;DHT22;4631;49.296;10.560;2023-07-29T09:26:00;18.90;99.90
9193;DHT22;4631;49.296;10.560;2023-07-29T09:28:26;18.90;99.90
9193;DHT22;4631;49.296;10.560;2023-07-29T09:30:58;18.90;99.90
9193;DHT22;4631;49.296;10.560;2023-07-29T09:33:25;19.00;99.90
9193;DHT22;4631;49.296;10.560;2023-07-29T09:35:52;19.10;99.90
9193;DHT22;4631;49.296;10.560;2023-07-29T09:38:25;19.10;99.90
9193;DHT22;4631;49.296;10.560;2023-07-29T09:40:54;19.20;99.90
9193;DHT22;4631;49.296;10.560;2023-07-29T09:43:21;19.40;99.90
9193;DHT22;4631;49.296;10.560;2023-07-29T09:45:51;19.40;99.90
9193;DHT22;4631;49.296;10.560;2023-07-29T09:48:19;19.50;99.90
9193;DHT22;4631;49.296;10.560;2023-07-29T09:50:48;19.60;99.90
9193;DHT22;4631;49.296;10.560;2023-07-29T09:53:15;19.60;99.90
9193;DHT22;4631;49.296;10.560;2023-07-29T09:55:45;19.70;99.90
9193;DHT22;4631;49.296;10.560;2023-07-29T09:58:14;19.70;99.90
9193;DHT22;4631;49.296;10.560;2023-07-29T10:00:41;19.70;99.90
9193;DHT22;4631;49.296;10.560;2023-07-29T10:03:08;19.60;99.90
9193;DHT22;4631;49.296;10.560;2023-07-29T10:05:35;19.60;99.90
9193;DHT22;4631;49.296;10.560;2023-07-29T10:08:02;19.60;99.90
9193;DHT22;4631;49.296;10.560;2023-07-29T10:10:28;19.60;99.90
9193;DHT22;4631;49.296;10.560;2023-07-29T10:13:01;19.60;99.90
9193;DHT22;4631;49.296;10.560;2023-07-29T10:15:29;19.70;99.90
9193;DHT22;4631;49.296;10.560;2023-07-29T10:17:57;19.70;99.90
9193;DHT22;4631;49.296;10.560;2023-07-29T10:20:25;19.70;99.90
9193;DHT22;4631;49.296;10.560;2023-07-29T10:22:52;19.80;99.90
9193;DHT22;4631;49.296;10.560;2023-07-29T10:25:22;19.90;99.90
9193;DHT22;4631;49.296;10.560;2023-07-29T10:27:49;20.00;99.90
9193;DHT22;4631;49.296;10.560;2023-07-29T10:30:18;20.20;99.90
9193;DHT22;4631;49.296;10.560;2023-07-29T10:32:48;20.40;99.90
9193;DHT22;4631;49.296;10.560;2023-07-29T10:35:15;20.50;99.90
9193;DHT22;4631;49.296;10.560;2023-07-29T10:37:42;20.60;99.90
9193;DHT22;4631;49.296;10.560;2023-07-29T10:40:11;20.80;99.90
9193;DHT22;4631;49.296;10.560;2023-07-29T10:42:38;20.90;99.90
9193;DHT22;4631;49.296;10.560;2023-07-29T10:45:17;20.90;99.90
9193;DHT22;4631;49.296;10.560;2023-07-29T10:47:44;21.10;99.90
9193;DHT22;4631;49.296;10.560;2023-07-29T10:50:17;21.20;99.90
9193;DHT22;4631;49.296;10.560;2023-07-29T10:52:47;21.30;99.90
9193;DHT22;4631;49.296;10.560;2023-07-29T10:55:25;21.40;99.90
9193;DHT22;4631;49.296;10.560;2023-07-29T10:57:52;21.60;99.90
9193;DHT22;4631;49.296;10.560;2023-07-29T11:00:19;21.70;99.90
9193;DHT22;4631;49.296;10.560;2023-07-29T11:02:56;21.70;99.90
9193;DHT22;4631;49.296;10.560;2023-07-29T11:05:26;21.60;99.90
9193;DHT22;4631;49.296;10.560;2023-07-29T11:07:53;21.60;99.90
9193;DHT22;4631;49.296;10.560;2023-07-29T11:10:20;21.50;99.90
9193;DHT22;4631;49.296;10.560;2023-07-29T11:12:47;21.40;99.90
9193;DHT22;4631;49.296;10.560;2023-07-29T11:15:26;21.30;99.90
9193;DHT22;4631;49.296;10.560;2023-07-29T11:17:53;21.30;99.90
9193;DHT22;4631;49.296;10.560;2023-07-29T11:20:22;21.20;99.90
9193;DHT22;4631;49.296;10.560;2023-07-29T11:22:52;21.10;99.90
9193;DHT22;4631;49.296;10.560;2023-07-29T11:25:19;21.10;99.90
9193;DHT22;4631;49.296;10.560;2023-07-29T11:27:45;21.10;99.90
9193;DHT22;4631;49.296;10.560;2023-07-29T11:30:13;21.10;99.90
9193;DHT22;4631;49.296;10.560;2023-07-29T11:32:40;21.10;99.90
9193;DHT22;4631;49.296;10.560;2023-07-29T11:35:08;21.00;99.90
9193;DHT22;4631;49.296;10.560;2023-07-29T11:37:35;21.00;99.90
9193;DHT22;4631;49.296;10.560;2023-07-29T11:40:06;21.00;99.90
9193;DHT22;4631;49.296;10.560;2023-07-29T11:42:33;21.10;99.90
9193;DHT22;4631;49.296;10.560;2023-07-29T11:45:00;21.10;99.90
9193;DHT22;4631;49.296;10.560;2023-07-29T11:47:27;21.30;99.90
9193;DHT22;4631;49.296;10.560;2023-07-29T11:49:54;21.30;99.90
9193;DHT22;4631;49.296;10.560;2023-07-29T11:52:24;21.40;99.90
9193;DHT22;4631;49.296;10.560;2023-07-29T11:54:51;21.60;99.90
9193;DHT22;4631;49.296;10.560;2023-07-29T11:57:20;21.90;99.90
9193;DHT22;4631;49.296;10.560;2023-07-29T11:59:47;22.10;99.90
9193;DHT22;4631;49.296;10.560;2023-07-29T12:02:15;22.30;99.90
9193;DHT22;4631;49.296;10.560;2023-07-29T12:04:42;22.50;99.90
9193;DHT22;4631;49.296;10.560;2023-07-29T12:07:09;22.70;99.90
9193;DHT22;4631;49.296;10.560;2023-07-29T12:09:36;22.90;99.90
9193;DHT22;4631;49.296;10.560;2023-07-29T12:12:04;23.10;99.90
9193;DHT22;4631;49.296;10.560;2023-07-29T12:14:32;23.20;99.90
9193;DHT22;4631;49.296;10.560;2023-07-29T12:16:59;23.40;99.90
9193;DHT22;4631;49.296;10.560;2023-07-29T12:19:30;23.60;99.90
9193;DHT22;4631;49.296;10.560;2023-07-29T12:21:57;23.70;99.90
9193;DHT22;4631;49.296;10.560;2023-07-29T12:24:24;23.80;99.90
9193;DHT22;4631;49.296;10.560;2023-07-29T12:26:50;23.80;99.90
9193;DHT22;4631;49.296;10.560;2023-07-29T12:29:18;24.00;99.90
9193;DHT22;4631;49.296;10.560;2023-07-29T12:31:46;24.20;99.90
9193;DHT22;4631;49.296;10.560;2023-07-29T12:34:17;24.40;99.90
9193;DHT22;4631;49.296;10.560;2023-07-29T12:36:44;24.70;99.90
9193;DHT22;4631;49.296;10.560;2023-07-29T12:39:17;24.90;99.90
9193;DHT22;4631;49.296;10.560;2023-07-29T12:41:44;25.20;99.90
9193;DHT22;4631;49.296;10.560;2023-07-29T12:44:11;25.10;99.90
9193;DHT22;4631;49.296;10.560;2023-07-29T12:46:37;25.10;99.90
9193;DHT22;4631;49.296;10.560;2023-07-29T12:49:06;25.00;99.90
9193;DHT22;4631;49.296;10.560;2023-07-29T12:51:32;25.00;99.90
9193;DHT22;4631;49.296;10.560;2023-07-29T12:53:59;24.80;99.90
9193;DHT22;4631;49.296;10.560;2023-07-29T12:56:26;24.50;99.90
9193;DHT22;4631;49.296;10.560;2023-07-29T12:58:53;24.50;99.90
9193;DHT22;4631;49.296;10.560;2023-07-29T13:01:19;24.40;99.90
9193;DHT22;4631;49.296;10.560;2023-07-29T13:03:47;24.30;99.90
9193;DHT22;4631;49.296;10.560;2023-07-29T13:06:15;24.20;99.90
9193;DHT22;4631;49.296;10.560;2023-07-29T13:08:42;24.10;99.90
9193;DHT22;4631;49.296;10.560;2023-07-29T13:11:09;24.10;99.90
9193;DHT22;4631;49.296;10.560;2023-07-29T13:13:35;24.30;99.90
9193;DHT22;4631;49.296;10.560;2023-07-29T13:16:02;24.60;99.90
9193;DHT22;4631;49.296;10.560;2023-07-29T13:18:29;24.80;99.90
9193;DHT22;4631;49.296;10.560;2023-07-29T13:20:56;24.90;99.90
9193;DHT22;4631;49.296;10.560;2023-07-29T13:23:24;24.90;99.90
9193;DHT22;4631;49.296;10.560;2023-07-29T13:25:51;24.80;99.90
9193;DHT22;4631;49.296;10.560;2023-07-29T13:28:17;24.70;99.90
9193;DHT22;4631;49.296;10.560;2023-07-29T13:30:44;24.60;99.90
9193;DHT22;4631;49.296;10.560;2023-07-29T13:33:11;24.60;99.90
9193;DHT22;4631;49.296;10.560;2023-07-29T13:35:38;24.60;99.90
9193;DHT22;4631;49.296;10.560;2023-07-29T13:38:05;24.60;99.90
9193;DHT22;4631;49.296;10.560;2023-07-29T13:40:33;24.70;99.90
9193;DHT22;4631;49.296;10.560;2023-07-29T13:43:03;24.90;99.90
9193;DHT22;4631;49.296;10.560;2023-07-29T13:45:29;25.00;99.90
9193;DHT22;4631;49.296;10.560;2023-07-29T13:47:56;25.20;99.90
9193;DHT22;4631;49.296;10.560;2023-07-29T13:50:23;25.30;99.90
9193;DHT22;4631;49.296;10.560;2023-07-29T13:52:50;25.30;99.90
9193;DHT22;4631;49.296;10.560;2023-07-29T13:55:16;25.30;99.90
9193;DHT22;4631;49.296;10.560;2023-07-29T13:57:45;25.40;99.90
9193;DHT22;4631;49.296;10.560;2023-07-29T14:00:12;25.40;99.90
9193;DHT22;4631;49.296;10.560;2023-07-29T14:02:39;25.60;99.90
9193;DHT22;4631;49.296;10.560;2023-07-29T14:05:05;25.60;99.90
9193;DHT22;4631;49.296;10.560;2023-07-29T14:07:33;25.60;99.90
9193;DHT22;4631;49.296;10.560;2023-07-29T14:10:00;25.70;99.90
9193;DHT22;4631;49.296;10.560;2023-07-29T14:12:26;25.60;99.90
9193;DHT22;4631;49.296;10.560;2023-07-29T14:14:55;25.40;99.90
9193;DHT22;4631;49.296;10.560;2023-07-29T14:17:21;25.30;99.90
9193;DHT22;4631;49.296;10.560;2023-07-29T14:19:48;25.20;99.90
9193;DHT22;4631;49.296;10.560;2023-07-29T14:22:15;24.90;99.90
9193;DHT22;4631;49.296;10.560;2023-07-29T14:24:42;24.80;99.90
9193;DHT22;4631;49.296;10.560;2023-07-29T14:27:08;24.70;99.90
9193;DHT22;4631;49.296;10.560;2023-07-29T14:29:35;24.50;99.90
9193;DHT22;4631;49.296;10.560;2023-07-29T14:32:04;24.50;99.90
9193;DHT22;4631;49.296;10.560;2023-07-29T14:34:30;24.60;99.90
9193;DHT22;4631;49.296;10.560;2023-07-29T14:36:57;24.50;99.90
9193;DHT22;4631;49.296;10.560;2023-07-29T14:39:24;24.50;99.90
9193;DHT22;4631;49.296;10.560;2023-07-29T14:41:51;24.60;99.90
9193;DHT22;4631;49.296;10.560;2023-07-29T14:44:17;24.80;99.90
9193;DHT22;4631;49.296;10.560;2023-07-29T14:46:44;25.10;99.90
9193;DHT22;4631;49.296;10.560;2023-07-29T14:49:15;25.40;99.90
9193;DHT22;4631;49.296;10.560;2023-07-29T14:51:42;25.60;99.90
9193;DHT22;4631;49.296;10.560;2023-07-29T14:54:08;25.90;99.90
9193;DHT22;4631;49.296;10.560;2023-07-29T14:56:44;25.90;99.90
9193;DHT22;4631;49.296;10.560;2023-07-29T14:59:34;26.00;99.90
9193;DHT22;4631;49.296;10.560;2023-07-29T15:05:21;26.20;99.90
9193;DHT22;4631;49.296;10.560;2023-07-29T15:08:11;26.90;99.90
9193;DHT22;4631;49.296;10.560;2023-07-29T15:11:02;26.10;99.90
9193;DHT22;4631;49.296;10.560;2023-07-29T15:13:41;26.00;99.90
9193;DHT22;4631;49.296;10.560;2023-07-29T15:16:28;26.10;99.90
9193;DHT22;4631;49.296;10.560;2023-07-29T15:19:01;26.20;99.90
9193;DHT22;4631;49.296;10.560;2023-07-29T15:21:50;26.20;99.90
9193;DHT22;4631;49.296;10.560;2023-07-29T15:24:29;26.30;99.90
9193;DHT22;4631;49.296;10.560;2023-07-29T15:27:02;26.40;99.90
9193;DHT22;4631;49.296;10.560;2023-07-29T15:29:58;26.50;99.90
9193;DHT22;4631;49.296;10.560;2023-07-29T15:35:10;26.80;99.90
9193;DHT22;4631;49.296;10.560;2023-07-29T15:37:45;26.80;99.90
9193;DHT22;4631;49.296;10.560;2023-07-29T15:40:13;26.70;99.90
9193;DHT22;4631;49.296;10.560;2023-07-29T15:42:40;26.50;99.90
9193;DHT22;4631;49.296;10.560;2023-07-29T15:48:37;26.30;99.90
9193;DHT22;4631;49.296;10.560;2023-07-29T15:51:21;26.30;99.90
9193;DHT22;4631;49.296;10.560;2023-07-29T15:54:03;26.50;99.90
9193;DHT22;4631;49.296;10.560;2023-07-29T15:56:46;26.30;99.90
9193;DHT22;4631;49.296;10.560;2023-07-29T15:59:18;26.90;99.90
9193;DHT22;4631;49.296;10.560;2023-07-29T16:01:51;26.10;99.90
9193;DHT22;4631;49.296;10.560;2023-07-29T16:07:38;25.90;99.90
9193;DHT22;4631;49.296;10.560;2023-07-29T16:10:07;25.90;99.90
9193;DHT22;4631;49.296;10.560;2023-07-29T16:12:38;25.80;99.90